Time;durP1;ratioP1;P1;durP2;ratioP2;P2;SDS_P1;SDS_P2;PMS_P1;PMS_P2;Temp;Humidity;BMP_temperature;BMP_pressure;BME280_temperature;BME280_humidity;BME280_pressure;Samples;Min_cycle;Max_cycle;Signal;HPM_P1;HPM_P2
2022/12/24 00:01:29;;;;;;;59.25;37.58;;;25.70;99.90;;;;;;5054557;28;20045;-73
2022/12/24 00:03:55;;;;;;;66.85;40.67;;;25.70;99.90;;;;;;5054489;28;20478;-73
2022/12/24 00:06:23;;;;;;;50.80;33.25;;;25.70;99.90;;;;;;5054337;28;20024;-73
2022/12/24 00:08:51;;;;;;;46.05;28.73;;;25.80;99.90;;;;;;5055238;28;20024;-73
2022/12/24 00:11:18;;;;;;;49.33;23.42;;;25.80;99.90;;;;;;5055086;28;20025;-73
2022/12/24 00:13:45;;;;;;;33.45;22.27;;;25.80;99.90;;;;;;5054640;28;20444;-73
2022/12/24 00:16:11;;;;;;;31.45;19.80;;;25.90;99.90;;;;;;5054723;28;20382;-74
2022/12/24 00:18:38;;;;;;;30.52;19.27;;;26.00;99.90;;;;;;5054838;28;20021;-74
2022/12/24 00:21:05;;;;;;;38.05;20.65;;;26.10;99.90;;;;;;5054852;28;20021;-73
2022/12/24 00:23:32;;;;;;;30.73;19.02;;;26.10;99.90;;;;;;5055036;28;20025;-73
2022/12/24 00:25:58;;;;;;;33.80;19.55;;;26.20;99.90;;;;;;5055155;28;20027;-74
2022/12/24 00:28:25;;;;;;;40.22;22.92;;;26.30;99.90;;;;;;5054908;28;20028;-73
2022/12/24 00:30:52;;;;;;;31.42;19.73;;;26.40;99.90;;;;;;5055055;28;20071;-74
2022/12/24 00:33:18;;;;;;;45.83;23.17;;;26.30;99.90;;;;;;5054867;28;20110;-74
2022/12/24 00:35:49;;;;;;;44.95;24.42;;;26.40;99.90;;;;;;5054948;28;20375;-74
2022/12/24 00:38:15;;;;;;;38.35;23.02;;;26.40;99.90;;;;;;5054814;28;20021;-72
2022/12/24 00:40:42;;;;;;;43.72;23.52;;;26.50;99.90;;;;;;5054909;28;20401;-74
2022/12/24 00:43:08;;;;;;;44.85;27.45;;;26.60;99.90;;;;;;5054321;28;20021;-74
2022/12/24 00:45:35;;;;;;;43.90;25.55;;;26.70;99.90;;;;;;5054629;28;20033;-74
2022/12/24 00:48:01;;;;;;;43.25;28.13;;;26.70;99.90;;;;;;5054181;28;20063;-73
2022/12/24 00:50:28;;;;;;;49.33;27.05;;;26.70;99.90;;;;;;5054167;28;20025;-74
2022/12/24 00:52:54;;;;;;;44.42;29.23;;;26.80;99.90;;;;;;5053825;28;20017;-73
2022/12/24 00:55:20;;;;;;;51.88;30.25;;;26.80;99.90;;;;;;5054522;28;20053;-73
2022/12/24 00:57:47;;;;;;;46.35;28.92;;;26.90;99.90;;;;;;5054737;28;20021;-73
2022/12/24 01:00:16;;;;;;;45.28;29.95;;;26.90;99.90;;;;;;5048564;28;20422;-74
2022/12/24 01:02:43;;;;;;;46.90;27.65;;;27.00;99.90;;;;;;5047295;28;20109;-74
2022/12/24 01:05:10;;;;;;;44.95;27.05;;;27.00;99.90;;;;;;5054466;28;20025;-72
2022/12/24 01:07:40;;;;;;;51.88;24.92;;;27.10;99.90;;;;;;5035089;28;20355;-73
2022/12/24 01:10:08;;;;;;;38.30;22.85;;;27.10;99.90;;;;;;5036430;28;20025;-75
2022/12/24 01:12:35;;;;;;;37.15;23.67;;;27.20;99.90;;;;;;5040162;28;20117;-75
2022/12/24 01:15:03;;;;;;;44.08;21.42;;;27.30;99.90;;;;;;5033719;28;20056;-74
2022/12/24 01:17:32;;;;;;;40.60;22.05;;;27.20;99.90;;;;;;5033750;28;20025;-76
2022/12/24 01:19:58;;;;;;;37.20;21.58;;;27.30;99.90;;;;;;5033658;28;20048;-75
2022/12/24 01:22:25;;;;;;;40.53;23.70;;;27.30;99.90;;;;;;5033837;28;20026;-75
2022/12/24 01:24:51;;;;;;;49.63;26.10;;;27.30;99.90;;;;;;5034121;28;20364;-75
2022/12/24 01:27:18;;;;;;;51.13;25.65;;;27.40;99.90;;;;;;5035656;28;20029;-75
2022/12/24 01:29:44;;;;;;;40.30;23.20;;;27.40;99.90;;;;;;5054071;28;20025;-74
2022/12/24 01:32:11;;;;;;;39.45;19.70;;;27.40;99.90;;;;;;5053467;28;20385;-76
2022/12/24 01:34:37;;;;;;;41.65;20.38;;;27.40;99.90;;;;;;5054077;28;20363;-76
2022/12/24 01:37:04;;;;;;;37.15;18.23;;;27.40;99.90;;;;;;5053646;28;20074;-75
2022/12/24 01:39:31;;;;;;;32.15;16.15;;;27.40;99.90;;;;;;5053582;28;20088;-75
2022/12/24 01:44:44;;;;;;;34.58;17.88;;;27.50;99.90;;;;;;5053998;28;20035;-77
2022/12/24 01:47:29;;;;;;;35.72;18.25;;;27.50;99.90;;;;;;5053849;28;20025;-77
2022/12/24 01:50:03;;;;;;;35.28;17.15;;;27.60;99.90;;;;;;5053762;28;20025;-76
2022/12/24 01:52:34;;;;;;;34.70;17.65;;;27.60;99.90;;;;;;5053508;28;20029;-76
2022/12/24 01:55:05;;;;;;;31.17;17.83;;;27.70;99.90;;;;;;5050583;28;20443;-77
2022/12/24 01:57:36;;;;;;;32.03;18.55;;;27.60;99.90;;;;;;5053134;28;20071;-76
2022/12/24 02:00:11;;;;;;;33.42;17.83;;;27.60;99.90;;;;;;5050497;28;20037;-73
2022/12/24 02:02:40;;;;;;;32.33;18.38;;;27.60;99.90;;;;;;5053014;28;20013;-76
2022/12/24 02:05:26;;;;;;;34.35;18.58;;;27.60;99.90;;;;;;5053077;28;20017;-75
2022/12/24 02:07:53;;;;;;;32.55;17.02;;;27.70;99.90;;;;;;5052832;28;20087;-75
2022/12/24 02:10:19;;;;;;;31.23;18.65;;;27.70;99.90;;;;;;5052890;28;20075;-77
2022/12/24 02:12:47;;;;;;;39.30;19.98;;;27.70;99.90;;;;;;5052688;28;20013;-75
2022/12/24 02:15:16;;;;;;;37.70;21.05;;;27.70;99.90;;;;;;5052745;28;20028;-73
2022/12/24 02:17:56;;;;;;;33.83;18.05;;;27.70;99.90;;;;;;5052515;28;20013;-74
2022/12/24 02:20:49;;;;;;;29.77;17.88;;;27.80;99.90;;;;;;5052253;28;20049;-73
2022/12/24 02:23:29;;;;;;;29.83;15.32;;;27.90;99.90;;;;;;5050629;28;20100;-75
2022/12/24 02:26:29;;;;;;;31.48;17.27;;;27.80;99.90;;;;;;5050973;28;20490;-75
2022/12/24 02:29:46;;;;;;;36.17;15.93;;;28.00;99.90;;;;;;5050875;28;20025;-75
2022/12/24 02:32:41;;;;;;;37.63;17.92;;;28.00;99.90;;;;;;5020395;28;20037;-75
2022/12/24 02:35:22;;;;;;;27.10;15.82;;;28.00;99.90;;;;;;5052347;28;20025;-74
2022/12/24 02:37:56;;;;;;;40.05;16.20;;;28.00;99.90;;;;;;5049840;28;20469;-74
2022/12/24 02:40:36;;;;;;;31.45;15.40;;;28.00;99.90;;;;;;5052522;28;20047;-74
2022/12/24 02:43:09;;;;;;;31.48;16.40;;;28.00;99.90;;;;;;5051673;28;20018;-74
2022/12/24 02:45:37;;;;;;;37.08;17.98;;;28.10;99.90;;;;;;5050687;28;20083;-72
2022/12/24 02:48:05;;;;;;;39.47;18.52;;;28.10;99.90;;;;;;5052432;28;20063;-74
2022/12/24 02:50:32;;;;;;;34.97;18.83;;;28.20;99.90;;;;;;5052298;28;20021;-73
2022/12/24 02:52:58;;;;;;;43.95;18.77;;;28.20;99.90;;;;;;5052474;28;20419;-71
2022/12/24 02:55:49;;;;;;;36.50;18.85;;;28.20;99.90;;;;;;5052371;28;20021;-71
2022/12/24 02:58:59;;;;;;;36.75;18.70;;;28.20;99.90;;;;;;5050491;28;20025;-71
2022/12/24 03:01:52;;;;;;;28.83;16.55;;;28.20;99.90;;;;;;5053598;28;20109;-71
2022/12/24 03:04:39;;;;;;;35.40;15.98;;;28.30;99.90;;;;;;5050960;28;20025;-71
2022/12/24 03:07:22;;;;;;;41.25;18.58;;;28.30;99.90;;;;;;5052054;28;20013;-74
2022/12/24 03:10:16;;;;;;;27.33;16.80;;;28.40;99.90;;;;;;5054014;28;20025;-74
2022/12/24 03:13:01;;;;;;;33.53;16.58;;;28.40;99.90;;;;;;5051187;28;20021;-74
2022/12/24 03:15:28;;;;;;;28.50;16.20;;;28.40;99.90;;;;;;5052990;28;20025;-73
2022/12/24 03:17:59;;;;;;;33.97;15.63;;;28.50;99.90;;;;;;5055918;28;20477;-73
2022/12/24 03:20:35;;;;;;;29.70;16.73;;;28.50;99.90;;;;;;5056019;28;20023;-74
2022/12/24 03:23:03;;;;;;;35.58;15.45;;;28.60;99.90;;;;;;5055953;28;20021;-75
2022/12/24 03:25:31;;;;;;;31.02;14.57;;;28.50;99.90;;;;;;5055885;28;20021;-75
2022/12/24 03:28:00;;;;;;;32.67;15.38;;;28.50;99.90;;;;;;5055918;28;20026;-75
2022/12/24 03:30:27;;;;;;;32.03;16.77;;;28.60;99.90;;;;;;5055795;28;20021;-74
2022/12/24 03:32:53;;;;;;;31.55;14.68;;;28.70;99.90;;;;;;5055728;28;20017;-74
2022/12/24 03:35:20;;;;;;;37.80;14.63;;;28.70;99.90;;;;;;5055718;28;20048;-74
2022/12/24 03:37:46;;;;;;;27.05;15.65;;;28.80;99.90;;;;;;5055796;28;20024;-73
2022/12/24 03:40:13;;;;;;;34.03;15.55;;;28.80;99.90;;;;;;5055988;28;20029;-71
2022/12/24 03:42:40;;;;;;;32.80;16.50;;;28.90;99.90;;;;;;5056143;28;20025;-66
2022/12/24 03:45:07;;;;;;;28.17;15.05;;;28.90;99.90;;;;;;5053307;28;20021;-65
2022/12/24 03:47:33;;;;;;;32.47;14.18;;;28.90;99.90;;;;;;5055385;28;20056;-66
2022/12/24 03:50:00;;;;;;;29.27;14.27;;;29.00;99.90;;;;;;5052051;28;20025;-72
2022/12/24 03:52:27;;;;;;;31.95;15.38;;;29.10;99.90;;;;;;5055237;28;20092;-73
2022/12/24 03:54:53;;;;;;;34.17;14.10;;;29.20;99.90;;;;;;5055533;28;20032;-72
2022/12/24 03:57:20;;;;;;;35.97;16.52;;;29.30;99.90;;;;;;5055755;28;20040;-72
2022/12/24 03:59:46;;;;;;;26.67;16.45;;;29.30;99.90;;;;;;5055654;28;20450;-73
2022/12/24 04:02:13;;;;;;;28.80;14.57;;;29.40;99.90;;;;;;5055735;28;20017;-71
2022/12/24 04:04:39;;;;;;;32.33;15.45;;;29.40;99.90;;;;;;5055274;28;20028;-69
2022/12/24 04:07:06;;;;;;;28.52;13.05;;;29.40;99.90;;;;;;5055605;28;20405;-70
2022/12/24 04:09:33;;;;;;;29.15;13.63;;;29.40;99.90;;;;;;5055358;28;20029;-71
2022/12/24 04:11:59;;;;;;;24.75;12.70;;;29.50;99.90;;;;;;5055582;28;20480;-72
2022/12/24 04:14:26;;;;;;;27.45;12.43;;;29.50;99.90;;;;;;5055602;28;20028;-71
2022/12/24 04:16:52;;;;;;;24.05;12.38;;;29.50;99.90;;;;;;5054906;28;20474;-70
2022/12/24 04:19:19;;;;;;;24.65;13.35;;;29.50;99.90;;;;;;5055360;28;20025;-69
2022/12/24 04:21:45;;;;;;;25.00;13.15;;;29.50;99.90;;;;;;5055324;28;20367;-70
2022/12/24 04:24:12;;;;;;;28.23;13.15;;;29.50;99.90;;;;;;5054703;28;20025;-69
2022/12/24 04:26:38;;;;;;;26.48;13.02;;;29.60;99.90;;;;;;5054329;28;20104;-69
2022/12/24 04:29:05;;;;;;;28.42;14.45;;;29.60;99.90;;;;;;5055128;28;20025;-69
2022/12/24 04:31:31;;;;;;;37.03;13.07;;;29.70;99.90;;;;;;5055036;28;20035;-68
2022/12/24 04:33:58;;;;;;;21.13;12.98;;;29.70;99.90;;;;;;5054967;28;20028;-68
2022/12/24 04:36:24;;;;;;;22.30;12.98;;;29.70;99.90;;;;;;5055064;28;20036;-68
2022/12/24 04:38:51;;;;;;;22.33;12.05;;;29.80;99.90;;;;;;5055017;28;20017;-69
2022/12/24 04:41:20;;;;;;;29.40;12.60;;;29.80;99.90;;;;;;5055136;28;20021;-69
2022/12/24 04:43:47;;;;;;;28.90;12.85;;;29.80;99.90;;;;;;5075141;28;20025;-68
2022/12/24 04:46:18;;;;;;;20.48;11.05;;;29.80;99.90;;;;;;5074876;28;20046;-70
2022/12/24 04:48:47;;;;;;;25.13;11.80;;;29.90;99.90;;;;;;5075123;28;20048;-69
2022/12/24 04:51:15;;;;;;;23.75;11.38;;;29.90;99.90;;;;;;5074199;28;20024;-68
2022/12/24 04:53:42;;;;;;;26.40;12.27;;;29.90;99.90;;;;;;5074551;28;20025;-68
2022/12/24 04:56:12;;;;;;;30.05;11.68;;;29.90;99.90;;;;;;5074666;28;20116;-69
2022/12/24 04:58:40;;;;;;;25.85;11.60;;;30.00;99.90;;;;;;5074559;28;20048;-69
2022/12/24 05:01:13;;;;;;;20.00;11.25;;;30.00;99.90;;;;;;5074696;28;20028;-69
2022/12/24 05:03:39;;;;;;;23.15;12.18;;;30.20;99.90;;;;;;5074430;28;20056;-69
2022/12/24 05:06:13;;;;;;;22.75;10.45;;;30.20;99.90;;;;;;5074468;28;20381;-69
2022/12/24 05:08:39;;;;;;;22.55;9.90;;;30.30;99.90;;;;;;5057667;28;20029;-68
2022/12/24 05:11:06;;;;;;;17.48;8.10;;;30.20;99.90;;;;;;5041441;28;20179;-67
2022/12/24 05:13:33;;;;;;;18.60;8.75;;;30.30;99.90;;;;;;5034432;28;20029;-69
2022/12/24 05:16:00;;;;;;;19.35;8.85;;;30.40;99.90;;;;;;5034039;28;20045;-68
2022/12/24 05:18:27;;;;;;;14.15;7.63;;;30.40;99.90;;;;;;5034500;28;20101;-67
2022/12/24 05:20:53;;;;;;;14.43;8.50;;;30.40;99.90;;;;;;5034498;28;20021;-70
2022/12/24 05:26:25;;;;;;;20.73;9.18;;;30.50;99.90;;;;;;5034470;28;20398;-69
2022/12/24 05:28:55;;;;;;;19.25;8.77;;;30.60;99.90;;;;;;5033987;28;20037;-70
2022/12/24 05:31:25;;;;;;;22.40;9.93;;;30.60;99.90;;;;;;5034027;28;20034;-70
2022/12/24 05:33:53;;;;;;;20.60;9.30;;;30.70;99.90;;;;;;5034145;28;20026;-68
2022/12/24 05:36:21;;;;;;;20.48;9.63;;;30.70;99.90;;;;;;5033944;28;20037;-67
2022/12/24 05:39:06;;;;;;;19.45;9.00;;;30.70;99.90;;;;;;5033682;28;20021;-68
2022/12/24 05:41:32;;;;;;;19.63;9.02;;;30.80;99.90;;;;;;5033594;28;20025;-68
2022/12/24 05:43:59;;;;;;;20.90;8.95;;;30.90;99.90;;;;;;5038114;28;20034;-66
2022/12/24 05:46:25;;;;;;;17.52;8.68;;;31.00;99.90;;;;;;5046773;28;20033;-67
2022/12/24 05:48:53;;;;;;;17.08;8.45;;;31.10;99.90;;;;;;5040647;28;20017;-69
2022/12/24 05:51:23;;;;;;;17.45;8.48;;;31.20;99.90;;;;;;5036032;28;20025;-68
2022/12/24 05:53:51;;;;;;;14.20;8.40;;;31.20;99.90;;;;;;5041007;28;20053;-67
2022/12/24 05:56:21;;;;;;;19.20;8.75;;;31.20;99.90;;;;;;5038781;28;20134;-73
2022/12/24 05:58:48;;;;;;;15.95;8.20;;;31.20;99.90;;;;;;5052163;28;20032;-69
2022/12/24 06:01:15;;;;;;;16.17;8.75;;;31.20;99.90;;;;;;5052196;28;20095;-68
2022/12/24 06:03:42;;;;;;;13.93;8.32;;;31.20;99.90;;;;;;5052180;28;20021;-69
2022/12/24 06:06:14;;;;;;;16.95;8.60;;;31.20;99.90;;;;;;5052196;28;20385;-67
2022/12/24 06:08:41;;;;;;;16.65;8.48;;;31.20;99.90;;;;;;5052717;28;20057;-69
2022/12/24 06:11:11;;;;;;;13.98;8.43;;;31.40;99.90;;;;;;5053481;28;20021;-69
2022/12/24 06:13:38;;;;;;;15.48;8.40;;;31.40;99.90;;;;;;5053259;28;20096;-67
2022/12/24 06:16:07;;;;;;;16.92;10.35;;;31.50;99.90;;;;;;5053408;28;20060;-69
2022/12/24 06:18:35;;;;;;;23.85;9.80;;;31.50;99.90;;;;;;5053479;28;20115;-68
2022/12/24 06:21:02;;;;;;;20.80;10.48;;;31.50;99.90;;;;;;5053298;28;20355;-68
2022/12/24 06:23:31;;;;;;;14.52;8.27;;;31.40;99.90;;;;;;5053296;28;20021;-69
2022/12/24 06:26:02;;;;;;;18.17;11.73;;;31.40;99.90;;;;;;5053076;28;20082;-69
2022/12/24 06:28:30;;;;;;;17.50;9.98;;;31.40;99.90;;;;;;5053297;28;20033;-68
2022/12/24 06:30:57;;;;;;;12.75;8.32;;;31.20;99.90;;;;;;5053911;28;20025;-67
2022/12/24 06:33:24;;;;;;;22.83;9.70;;;31.20;99.90;;;;;;5053191;28;20033;-65
2022/12/24 06:35:50;;;;;;;19.98;9.23;;;31.20;99.90;;;;;;5051249;28;20393;-68
2022/12/24 06:38:17;;;;;;;22.00;9.20;;;31.20;99.90;;;;;;5051604;28;20485;-68
2022/12/24 06:40:45;;;;;;;17.45;9.45;;;31.20;99.90;;;;;;5051635;28;20032;-66
2022/12/24 06:43:13;;;;;;;16.58;8.65;;;31.20;99.90;;;;;;5041048;28;20021;-66
2022/12/24 06:45:43;;;;;;;25.60;15.77;;;31.20;99.90;;;;;;5053138;28;20059;-68
2022/12/24 06:48:10;;;;;;;43.03;33.63;;;31.30;99.90;;;;;;5053112;28;20035;-66
2022/12/24 06:50:36;;;;;;;22.52;15.07;;;31.30;99.90;;;;;;5054278;28;20469;-66
2022/12/24 06:53:03;;;;;;;17.02;11.23;;;31.40;99.90;;;;;;5057258;28;20152;-67
2022/12/24 06:55:29;;;;;;;27.83;17.33;;;31.40;99.90;;;;;;5057025;28;20371;-67
2022/12/24 06:57:59;;;;;;;17.73;10.95;;;31.40;99.90;;;;;;5056851;28;20021;-67
2022/12/24 07:00:25;;;;;;;19.92;12.32;;;31.40;99.90;;;;;;5056773;28;20041;-68
2022/12/24 07:02:52;;;;;;;17.20;12.38;;;31.40;99.90;;;;;;5056930;28;20013;-67
2022/12/24 07:05:19;;;;;;;17.25;10.05;;;31.50;99.90;;;;;;5056751;28;20029;-67
2022/12/24 07:07:45;;;;;;;16.65;11.80;;;31.50;99.90;;;;;;5056786;28;20083;-66
2022/12/24 07:10:14;;;;;;;18.08;9.23;;;31.50;99.90;;;;;;5056837;28;20025;-66
2022/12/24 07:12:41;;;;;;;15.63;10.45;;;31.50;99.90;;;;;;5056560;28;20499;-66
2022/12/24 07:15:08;;;;;;;19.33;9.75;;;31.60;99.90;;;;;;5053420;28;20032;-66
2022/12/24 07:17:35;;;;;;;16.15;9.43;;;31.60;99.90;;;;;;5052433;28;20486;-66
2022/12/24 07:20:02;;;;;;;20.00;10.48;;;31.60;99.90;;;;;;5055005;28;20021;-65
2022/12/24 07:22:28;;;;;;;19.73;11.45;;;31.60;99.90;;;;;;5055038;28;20017;-65
2022/12/24 07:24:55;;;;;;;20.30;10.52;;;31.60;99.90;;;;;;5055155;28;20020;-66
2022/12/24 07:27:21;;;;;;;18.17;11.25;;;31.70;99.90;;;;;;5054669;28;20424;-65
2022/12/24 07:29:48;;;;;;;21.27;11.68;;;31.70;99.90;;;;;;5054548;28;20073;-66
2022/12/24 07:32:14;;;;;;;28.55;12.85;;;31.60;99.90;;;;;;5052306;28;20486;-66
2022/12/24 07:34:41;;;;;;;24.60;13.13;;;31.60;99.90;;;;;;5054045;28;20032;-66
2022/12/24 07:37:08;;;;;;;32.58;15.65;;;31.70;99.90;;;;;;5053970;28;20568;-65
2022/12/24 07:39:34;;;;;;;24.27;11.95;;;31.70;99.90;;;;;;5054200;28;20033;-66
2022/12/24 07:42:01;;;;;;;26.05;14.45;;;31.70;99.90;;;;;;5054464;28;20040;-65
2022/12/24 07:44:27;;;;;;;25.13;13.73;;;31.70;99.90;;;;;;5052876;28;20112;-66
2022/12/24 07:46:54;;;;;;;32.22;16.20;;;31.80;99.90;;;;;;5052809;28;20560;-65
2022/12/24 07:49:20;;;;;;;21.05;10.70;;;31.80;99.90;;;;;;5054544;28;20028;-65
2022/12/24 07:51:47;;;;;;;34.95;20.92;;;31.80;99.90;;;;;;5054072;28;20021;-66
2022/12/24 07:54:14;;;;;;;74.18;45.65;;;31.90;99.90;;;;;;5054280;28;20170;-66
2022/12/24 07:56:42;;;;;;;78.90;48.50;;;31.90;99.90;;;;;;5053647;28;20028;-66
2022/12/24 07:59:11;;;;;;;61.15;38.20;;;31.90;99.90;;;;;;5053443;28;20044;-65
2022/12/24 08:01:41;;;;;;;25.55;14.60;;;31.90;99.90;;;;;;5051645;28;20017;-65
2022/12/24 08:04:07;;;;;;;26.17;15.18;;;31.80;99.90;;;;;;5053525;28;20127;-65
2022/12/24 08:06:34;;;;;;;18.90;11.15;;;31.90;99.90;;;;;;5053884;28;20032;-68
2022/12/24 08:09:00;;;;;;;15.25;8.93;;;31.80;99.90;;;;;;5055421;28;20021;-66
2022/12/24 08:11:27;;;;;;;21.33;12.30;;;31.70;99.90;;;;;;5054817;28;20013;-65
2022/12/24 08:13:54;;;;;;;17.80;11.95;;;31.80;99.90;;;;;;5054591;28;20017;-64
2022/12/24 08:16:20;;;;;;;41.45;25.33;;;31.70;99.90;;;;;;5054029;28;20042;-65
2022/12/24 08:18:47;;;;;;;58.22;34.28;;;31.80;99.90;;;;;;5053912;28;20025;-65
2022/12/24 08:21:13;;;;;;;23.55;14.55;;;31.80;99.90;;;;;;5052235;28;20021;-67
2022/12/24 08:23:40;;;;;;;42.58;21.52;;;31.80;99.90;;;;;;5054725;28;20029;-66
2022/12/24 08:26:09;;;;;;;23.02;14.65;;;31.80;99.90;;;;;;5051929;28;20021;-65
2022/12/24 08:28:36;;;;;;;23.58;13.43;;;31.70;99.90;;;;;;5045976;28;20037;-66
2022/12/24 08:31:03;;;;;;;26.98;15.93;;;31.80;99.90;;;;;;5054347;28;20055;-66
2022/12/24 08:33:30;;;;;;;24.08;15.15;;;31.80;99.90;;;;;;5052916;28;20082;-66
2022/12/24 08:35:57;;;;;;;24.42;13.32;;;31.80;99.90;;;;;;5053648;28;20029;-64
2022/12/24 08:38:24;;;;;;;23.88;13.90;;;31.90;99.90;;;;;;5055636;28;20148;-65
2022/12/24 08:40:53;;;;;;;22.95;16.23;;;31.90;99.90;;;;;;5053417;28;20021;-64
2022/12/24 08:43:20;;;;;;;22.77;13.63;;;31.90;99.90;;;;;;5054017;28;20024;-66
2022/12/24 08:45:50;;;;;;;21.48;13.40;;;31.90;99.90;;;;;;5054355;28;20032;-65
2022/12/24 08:48:17;;;;;;;17.00;10.90;;;31.90;99.90;;;;;;5054927;28;20531;-67
2022/12/24 08:50:44;;;;;;;22.92;11.45;;;31.90;99.90;;;;;;5054514;28;20386;-67
2022/12/24 08:53:11;;;;;;;25.70;10.27;;;31.80;99.90;;;;;;5054497;28;20108;-68
2022/12/24 08:55:38;;;;;;;20.40;10.68;;;31.80;99.90;;;;;;5055441;28;20017;-66
2022/12/24 08:58:05;;;;;;;20.20;11.45;;;31.80;99.90;;;;;;5055324;28;20397;-66
2022/12/24 09:00:31;;;;;;;30.58;15.02;;;31.80;99.90;;;;;;5055087;28;20041;-66
2022/12/24 09:02:58;;;;;;;21.63;11.05;;;31.80;99.90;;;;;;5055016;28;20064;-66
2022/12/24 09:05:24;;;;;;;36.58;17.60;;;31.80;99.90;;;;;;5054906;28;20028;-68
2022/12/24 09:07:51;;;;;;;25.92;12.82;;;31.70;99.90;;;;;;5054676;28;20064;-69
2022/12/24 09:10:17;;;;;;;21.83;11.55;;;31.70;99.90;;;;;;5054571;28;20504;-68
2022/12/24 09:12:44;;;;;;;21.17;13.57;;;31.70;99.90;;;;;;5053497;28;20037;-67
2022/12/24 09:15:10;;;;;;;22.05;13.48;;;31.70;99.90;;;;;;5054296;28;20481;-65
2022/12/24 09:17:37;;;;;;;29.38;15.90;;;31.70;99.90;;;;;;5054039;28;20112;-68
2022/12/24 09:20:05;;;;;;;39.20;19.42;;;31.80;99.90;;;;;;5054200;28;20025;-67
2022/12/24 09:22:36;;;;;;;43.63;21.60;;;31.80;99.90;;;;;;5054149;28;20035;-66
2022/12/24 09:25:03;;;;;;;38.42;14.73;;;31.70;99.90;;;;;;5047798;28;20040;-66
2022/12/24 09:27:31;;;;;;;42.63;19.88;;;31.70;99.90;;;;;;5037947;28;20029;-68
2022/12/24 09:29:57;;;;;;;30.73;15.88;;;31.70;99.90;;;;;;5043661;28;20038;-66
2022/12/24 09:32:24;;;;;;;34.80;16.88;;;31.70;99.90;;;;;;5034666;28;20028;-65
2022/12/24 09:34:50;;;;;;;36.42;13.55;;;31.60;99.90;;;;;;5033600;28;20068;-65
2022/12/24 09:37:17;;;;;;;46.22;23.67;;;31.50;99.90;;;;;;5034105;28;20028;-65
2022/12/24 09:39:44;;;;;;;41.55;19.98;;;31.40;99.90;;;;;;5034255;28;20376;-65
2022/12/24 09:42:25;;;;;;;40.13;18.10;;;31.30;99.90;;;;;;5033834;28;20018;-65
2022/12/24 09:45:04;;;;;;;45.83;21.75;;;31.20;99.90;;;;;;5034740;28;20025;-64
2022/12/24 09:47:38;;;;;;;35.47;17.65;;;31.10;99.90;;;;;;5036999;28;20143;-67
2022/12/24 09:50:25;;;;;;;32.47;15.82;;;31.00;99.90;;;;;;5050513;28;20123;-69
2022/12/24 09:52:53;;;;;;;40.00;19.33;;;30.90;99.90;;;;;;5051951;28;20028;-70
2022/12/24 09:55:30;;;;;;;38.97;18.73;;;30.80;99.90;;;;;;5052666;28;20043;-66
2022/12/24 09:57:58;;;;;;;43.72;20.75;;;30.70;99.90;;;;;;5052205;28;20075;-65
2022/12/24 10:00:32;;;;;;;34.33;16.63;;;30.80;99.90;;;;;;5043582;28;20033;-66
2022/12/24 10:02:59;;;;;;;34.95;16.77;;;30.70;99.90;;;;;;5053427;28;20024;-64
2022/12/24 10:06:01;;;;;;;33.03;18.65;;;30.70;99.90;;;;;;5052712;28;20416;-66
2022/12/24 10:08:58;;;;;;;40.35;20.23;;;30.70;99.90;;;;;;5005156;28;20041;-65
2022/12/24 10:11:55;;;;;;;39.90;17.83;;;30.60;99.90;;;;;;5045032;28;20381;-67
2022/12/24 10:14:44;;;;;;;31.98;17.17;;;30.60;99.90;;;;;;5017413;28;20037;-67
2022/12/24 10:17:51;;;;;;;32.63;15.82;;;30.50;99.90;;;;;;5050262;28;20112;-63
2022/12/24 10:20:36;;;;;;;260.95;153.90;;;30.40;99.90;;;;;;5021215;28;20457;-64
2022/12/24 10:23:06;;;;;;;126.60;68.72;;;30.30;99.90;;;;;;5052655;28;20021;-65
2022/12/24 10:25:51;;;;;;;78.38;39.63;;;30.30;99.90;;;;;;5050382;28;20041;-66
2022/12/24 10:28:37;;;;;;;235.43;115.82;;;30.30;99.90;;;;;;5053276;28;20436;-66
2022/12/24 10:31:07;;;;;;;103.28;45.95;;;30.30;99.90;;;;;;5057571;28;20448;-64
2022/12/24 10:33:41;;;;;;;46.97;24.63;;;30.30;99.90;;;;;;5050977;28;20099;-66
2022/12/24 10:36:16;;;;;;;37.55;15.30;;;30.20;99.90;;;;;;5051797;28;20037;-66
2022/12/24 10:38:44;;;;;;;36.00;16.52;;;30.10;99.90;;;;;;5052747;28;20018;-65
2022/12/24 10:41:11;;;;;;;50.72;22.73;;;30.00;99.90;;;;;;5052179;28;20031;-66
2022/12/24 10:43:41;;;;;;;35.88;16.15;;;29.90;99.90;;;;;;5053652;28;20103;-65
2022/12/24 10:46:22;;;;;;;24.95;12.50;;;29.80;99.90;;;;;;5062353;28;20028;-63
2022/12/24 10:48:57;;;;;;;25.83;13.45;;;29.80;99.90;;;;;;5059753;28;20037;-65
2022/12/24 10:51:29;;;;;;;36.13;14.77;;;29.70;99.90;;;;;;5054462;28;20036;-64
2022/12/24 10:54:23;;;;;;;26.60;13.90;;;29.70;99.90;;;;;;5059046;28;20040;-63
2022/12/24 10:56:55;;;;;;;24.20;11.85;;;29.70;99.90;;;;;;5065817;28;20394;-64
2022/12/24 10:59:49;;;;;;;25.25;12.23;;;29.80;99.90;;;;;;5046231;28;20041;-65
2022/12/24 11:02:36;;;;;;;38.55;18.50;;;29.80;99.90;;;;;;5072170;28;20118;-64
2022/12/24 11:05:07;;;;;;;40.72;20.95;;;29.80;99.90;;;;;;5050769;28;20064;-64
2022/12/24 11:07:33;;;;;;;44.17;22.23;;;29.90;99.90;;;;;;5050040;28;20053;-64
2022/12/24 11:10:02;;;;;;;46.70;24.23;;;29.70;99.90;;;;;;5051066;28;20035;-62
2022/12/24 11:12:39;;;;;;;47.30;26.23;;;29.70;99.90;;;;;;5047866;28;20033;-65
2022/12/24 11:15:12;;;;;;;46.63;23.27;;;29.70;99.90;;;;;;5050021;28;20025;-66
2022/12/24 11:17:39;;;;;;;51.20;25.48;;;29.70;99.90;;;;;;5049702;28;20016;-65
2022/12/24 11:20:16;;;;;;;45.40;25.45;;;29.60;99.90;;;;;;5050855;28;20474;-65
2022/12/24 11:22:49;;;;;;;48.88;26.10;;;29.60;99.90;;;;;;5047551;28;20045;-66
2022/12/24 11:25:21;;;;;;;52.70;27.90;;;29.70;99.90;;;;;;5052624;28;20056;-65
2022/12/24 11:27:50;;;;;;;55.10;28.63;;;29.60;99.90;;;;;;5050604;28;20029;-65
2022/12/24 11:30:28;;;;;;;52.17;26.27;;;29.50;99.90;;;;;;5050754;28;20621;-64
2022/12/24 11:33:00;;;;;;;47.85;25.30;;;29.50;99.90;;;;;;5052350;28;20025;-63
2022/12/24 11:35:28;;;;;;;44.15;25.48;;;29.50;99.90;;;;;;5049992;28;20025;-65
2022/12/24 11:38:04;;;;;;;48.08;25.38;;;29.50;99.90;;;;;;5054483;28;20044;-67
2022/12/24 11:40:42;;;;;;;50.95;26.50;;;29.50;99.90;;;;;;5053697;28;20036;-66
2022/12/24 11:43:20;;;;;;;51.17;27.60;;;29.40;99.90;;;;;;5054531;28;20055;-65
2022/12/24 11:45:58;;;;;;;56.30;29.33;;;29.40;99.90;;;;;;5046507;28;20033;-66
2022/12/24 11:48:32;;;;;;;54.42;28.45;;;29.30;99.90;;;;;;5053825;28;20025;-65
2022/12/24 11:51:02;;;;;;;57.90;28.25;;;29.30;99.90;;;;;;5044586;28;20083;-67
2022/12/24 11:53:40;;;;;;;53.10;28.13;;;29.30;99.90;;;;;;5037095;28;20024;-68
2022/12/24 11:56:36;;;;;;;51.85;26.45;;;29.30;99.90;;;;;;5048425;28;20106;-68
2022/12/24 11:59:18;;;;;;;44.70;23.02;;;29.30;99.90;;;;;;5049342;28;20033;-65
2022/12/24 12:01:49;;;;;;;37.45;21.23;;;29.20;99.90;;;;;;5052444;28;20017;-66
2022/12/24 12:04:19;;;;;;;40.10;21.30;;;29.20;99.90;;;;;;5053300;28;20029;-67
2022/12/24 12:06:57;;;;;;;35.38;17.52;;;29.10;99.90;;;;;;5054514;28;20025;-67
2022/12/24 12:09:49;;;;;;;33.75;17.00;;;29.10;99.90;;;;;;5049311;28;20021;-67
2022/12/24 12:12:23;;;;;;;33.85;16.75;;;29.10;99.90;;;;;;5050034;28;20029;-65
2022/12/24 12:14:53;;;;;;;30.30;15.30;;;29.10;99.90;;;;;;5046556;28;20068;-66
2022/12/24 12:17:45;;;;;;;33.60;16.23;;;29.10;99.90;;;;;;5052198;28;20100;-67
2022/12/24 12:20:25;;;;;;;32.70;17.90;;;29.00;99.90;;;;;;5051002;28;20021;-65
2022/12/24 12:23:07;;;;;;;30.25;16.40;;;29.00;99.90;;;;;;5049822;28;20017;-67
2022/12/24 12:25:50;;;;;;;29.98;14.50;;;29.00;99.90;;;;;;5052708;28;20029;-67
2022/12/24 12:28:38;;;;;;;29.42;15.05;;;28.90;99.90;;;;;;5051734;28;20120;-64
2022/12/24 12:31:29;;;;;;;35.83;14.50;;;29.00;99.90;;;;;;5048589;28;20039;-66
2022/12/24 12:34:24;;;;;;;27.30;12.88;;;29.00;99.90;;;;;;5047574;28;20186;-66
2022/12/24 12:37:21;;;;;;;33.83;15.57;;;29.00;99.90;;;;;;5051227;28;20013;-64
2022/12/24 12:39:47;;;;;;;27.40;14.50;;;28.90;99.90;;;;;;5051796;28;20478;-65
2022/12/24 12:42:29;;;;;;;26.95;13.02;;;28.90;99.90;;;;;;5051830;28;20512;-65
2022/12/24 12:45:29;;;;;;;22.42;11.43;;;28.90;99.90;;;;;;5051560;28;20021;-66
2022/12/24 12:48:05;;;;;;;21.00;11.52;;;28.80;99.90;;;;;;5051421;28;20029;-66
2022/12/24 12:51:00;;;;;;;24.00;11.73;;;28.80;99.90;;;;;;5050115;28;20386;-66
2022/12/24 12:53:56;;;;;;;31.20;14.00;;;28.80;99.90;;;;;;5050385;28;20378;-66
2022/12/24 12:56:38;;;;;;;28.13;11.15;;;28.70;99.90;;;;;;5045229;28;20116;-66